Morton, Arkansas
Current Conditions -  °F | °C
As of 11:56 PM on Saturday 25 Oct 2014 (Local Time) from KM19 Reporting Station
Haze Haze  
Wind Chill: 64°   Ceiling: Unl
Heat Index: 64°   Visibility: 6mi
Dew Point: 62°   Wind: 7mph
Humidity: 93%   Direction: 200°SSW
Pressure: 30.01"   Gusts: NA
Location:  35.2139°N, 91.1509°W
Report Text: KM19 260456Z AUTO 20006KT 6SM BR CLR 18/17 A3001 RMK AO2 T01770166 403110127 SLP161
Loading
Personal Weather Stations






























Interactive Weather Map
Tropical Storm Tracking
New forecast layout! Learn more

10-Day Weather Forecast

Advertisements
Track Severe Weather on mobile